Time;durP1;ratioP1;P1;durP2;ratioP2;P2;SDS_P1;SDS_P2;PMS_P1;PMS_P2;Temp;Humidity;BMP_temperature;BMP_pressure;BME280_temperature;BME280_humidity;BME280_pressure;Samples;Min_cycle;Max_cycle;Signal;HPM_P1;HPM_P2
2023/01/05 00:01:21;;;;;;;31.73;4.35;;;9.80;99.90;;;;;;4894468;29;20040;-87
2023/01/05 00:03:47;;;;;;;23.90;4.15;;;9.80;99.90;;;;;;4896715;29;20515;-87
2023/01/05 00:06:16;;;;;;;22.35;4.07;;;9.80;99.90;;;;;;4911670;29;20036;-87
2023/01/05 00:08:43;;;;;;;31.25;4.15;;;9.80;99.90;;;;;;4909851;29;20049;-86
2023/01/05 00:22:29;;;;;;;24.45;4.68;;;9.80;99.90;;;;;;4908872;29;20048;-87
2023/01/05 00:25:06;;;;;;;21.20;3.83;;;9.80;99.90;;;;;;4909832;29;20066;-87
2023/01/05 00:27:32;;;;;;;29.85;4.03;;;10.10;99.90;;;;;;4910752;29;20086;-88
2023/01/05 00:29:58;;;;;;;26.15;4.72;;;9.80;99.90;;;;;;4907995;29;20044;-88
2023/01/05 00:32:24;;;;;;;28.73;4.97;;;10.60;99.90;;;;;;4910783;29;20040;-88
2023/01/05 00:34:54;;;;;;;24.80;5.05;;;9.80;99.90;;;;;;4909420;29;20136;-87
2023/01/05 00:37:24;;;;;;;25.45;5.93;;;9.80;99.90;;;;;;4909972;29;20052;-87
2023/01/05 00:39:50;;;;;;;22.77;4.00;;;9.80;99.90;;;;;;4907350;29;20050;-87
2023/01/05 00:42:16;;;;;;;23.60;4.55;;;9.90;99.90;;;;;;4910353;29;20051;-87
2023/01/05 00:44:41;;;;;;;25.15;5.60;;;9.90;99.90;;;;;;4891663;29;20048;-87
2023/01/05 00:47:07;;;;;;;23.88;3.85;;;9.90;99.90;;;;;;4911719;29;20533;-87
2023/01/05 00:49:33;;;;;;;27.58;5.35;;;9.80;99.90;;;;;;4910639;29;20111;-87
2023/01/05 00:51:59;;;;;;;21.25;3.88;;;9.80;99.90;;;;;;4907731;29;20040;-86
2023/01/05 00:54:27;;;;;;;21.80;3.97;;;9.80;99.90;;;;;;4907753;29;20080;-87
2023/01/05 00:56:53;;;;;;;26.30;5.82;;;9.90;99.90;;;;;;4892736;29;20098;-87
2023/01/05 00:59:21;;;;;;;25.75;4.65;;;9.80;99.90;;;;;;4909279;29;20041;-88
2023/01/05 01:01:51;;;;;;;21.98;4.65;;;9.80;99.90;;;;;;4907725;29;20162;-87
2023/01/05 01:04:18;;;;;;;24.67;5.30;;;10.10;99.90;;;;;;4889186;29;20050;-88
2023/01/05 01:06:44;;;;;;;23.17;4.63;;;9.80;99.90;;;;;;4893221;29;20050;-87
2023/01/05 01:09:11;;;;;;;27.55;3.90;;;9.80;99.90;;;;;;4909509;29;20055;-88
2023/01/05 01:11:37;;;;;;;24.33;4.85;;;9.80;99.90;;;;;;4912303;29;20083;-87
2023/01/05 01:14:05;;;;;;;27.23;4.47;;;9.70;99.90;;;;;;4911194;29;20048;-86
2023/01/05 01:16:32;;;;;;;18.38;4.18;;;9.70;99.90;;;;;;4904256;29;20132;-87
2023/01/05 01:18:57;;;;;;;24.15;3.92;;;9.80;99.90;;;;;;4907795;29;20070;-87
2023/01/05 01:21:23;;;;;;;23.55;5.32;;;10.00;99.90;;;;;;4905362;29;20507;-87
2023/01/05 01:23:49;;;;;;;26.27;3.88;;;9.00;99.90;;;;;;4890153;29;20047;-87
2023/01/05 01:26:14;;;;;;;21.17;4.65;;;10.00;99.90;;;;;;4909077;29;20049;-86
2023/01/05 01:28:40;;;;;;;31.75;5.22;;;10.80;99.90;;;;;;4906899;29;20097;-87
2023/01/05 01:31:06;;;;;;;20.45;3.70;;;9.80;99.90;;;;;;4908797;29;20463;-87
2023/01/05 01:33:33;;;;;;;23.65;4.75;;;9.80;99.90;;;;;;4908595;29;20099;-88
2023/01/05 01:36:02;;;;;;;22.95;4.32;;;9.80;99.90;;;;;;4905554;29;20052;-86
2023/01/05 01:38:27;;;;;;;25.17;4.30;;;9.80;99.90;;;;;;4909643;29;20075;-88
2023/01/05 01:40:53;;;;;;;20.63;3.58;;;9.80;99.90;;;;;;4908591;29;20072;-86
2023/01/05 01:43:46;;;;;;;20.02;3.80;;;9.90;99.90;;;;;;4910164;29;20032;-86
2023/01/05 01:46:13;;;;;;;24.50;4.45;;;9.80;99.90;;;;;;4905242;29;20054;-87
2023/01/05 01:48:45;;;;;;;23.92;4.57;;;9.90;99.90;;;;;;4907921;29;20054;-88
2023/01/05 01:51:23;;;;;;;27.48;5.72;;;10.60;99.90;;;;;;4908406;29;20127;-87
2023/01/05 01:53:54;;;;;;;27.90;4.20;;;10.40;99.90;;;;;;4906357;29;20096;-88
2023/01/05 01:56:23;;;;;;;19.08;4.22;;;9.90;99.90;;;;;;4909966;29;20040;-87
2023/01/05 01:58:49;;;;;;;22.73;4.25;;;9.90;99.90;;;;;;4894417;29;20127;-88
2023/01/05 02:01:14;;;;;;;23.08;4.90;;;10.00;99.90;;;;;;4894273;29;20040;-87
2023/01/05 02:03:40;;;;;;;15.68;3.35;;;9.90;99.90;;;;;;4910435;29;20036;-88
2023/01/05 02:06:06;;;;;;;17.75;3.38;;;9.90;99.90;;;;;;4906510;29;20040;-87
2023/01/05 02:08:32;;;;;;;18.27;3.92;;;10.00;99.90;;;;;;4907538;29;20040;-86
2023/01/05 02:11:29;;;;;;;20.45;3.58;;;9.90;99.90;;;;;;4904719;29;20036;-87
2023/01/05 02:14:19;;;;;;;28.50;3.67;;;9.60;99.90;;;;;;4889859;29;20047;-88
2023/01/05 02:17:23;;;;;;;17.85;4.28;;;9.90;99.90;;;;;;4911014;29;20120;-87
2023/01/05 02:20:00;;;;;;;22.95;4.65;;;9.90;99.90;;;;;;4888407;29;20056;-87
2023/01/05 02:22:29;;;;;;;21.15;4.45;;;9.90;99.90;;;;;;4906927;29;20526;-87
2023/01/05 02:25:27;;;;;;;22.45;3.90;;;10.70;99.90;;;;;;4906879;29;20052;-87
2023/01/05 02:28:14;;;;;;;17.48;3.63;;;9.90;99.90;;;;;;4906398;29;20088;-87
2023/01/05 02:31:17;;;;;;;22.45;4.88;;;9.80;99.90;;;;;;4909618;29;20087;-88
2023/01/05 02:33:55;;;;;;;20.70;3.95;;;9.90;99.90;;;;;;4906528;29;20130;-86
2023/01/05 02:36:33;;;;;;;25.80;4.78;;;9.90;99.90;;;;;;4906677;29;20044;-87
2023/01/05 02:39:16;;;;;;;18.77;3.88;;;9.90;99.90;;;;;;4909000;29;20538;-87
2023/01/05 02:41:53;;;;;;;21.90;4.43;;;10.20;99.90;;;;;;4906895;29;20384;-88
2023/01/05 02:44:19;;;;;;;20.08;4.07;;;10.70;99.90;;;;;;4904839;29;20053;-87
2023/01/05 02:46:45;;;;;;;20.02;4.50;;;9.90;99.90;;;;;;4907955;29;20051;-88
2023/01/05 02:49:15;;;;;;;23.42;4.50;;;10.50;99.90;;;;;;4908124;29;20047;-86
2023/01/05 02:51:48;;;;;;;24.98;4.38;;;9.90;99.90;;;;;;4902055;29;20044;-86
2023/01/05 02:54:27;;;;;;;19.50;4.72;;;9.90;99.90;;;;;;4905322;29;20131;-86
2023/01/05 02:57:06;;;;;;;23.13;4.68;;;9.90;99.90;;;;;;4908883;29;20056;-86
2023/01/05 02:59:48;;;;;;;23.80;4.38;;;10.60;99.90;;;;;;4906473;29;20048;-87
2023/01/05 03:02:21;;;;;;;20.73;4.10;;;9.90;99.90;;;;;;4891839;29;20048;-87
2023/01/05 03:04:57;;;;;;;23.42;3.78;;;10.60;99.90;;;;;;4906546;29;20040;-88
2023/01/05 03:07:28;;;;;;;22.50;3.95;;;9.80;99.90;;;;;;4906721;29;20216;-87
2023/01/05 03:09:54;;;;;;;20.88;3.75;;;9.80;99.90;;;;;;4887393;29;20139;-86
2023/01/05 03:15:19;;;;;;;23.08;3.80;;;9.80;99.90;;;;;;4905898;29;20087;-87
2023/01/05 03:17:55;;;;;;;24.83;4.75;;;9.80;99.90;;;;;;4907784;29;20111;-87
2023/01/05 03:20:24;;;;;;;22.13;4.15;;;9.80;99.90;;;;;;4902587;29;20124;-87
2023/01/05 03:37:18;;;;;;;26.27;5.15;;;9.70;99.90;;;;;;4902607;29;20043;-87
2023/01/05 03:39:48;;;;;;;27.00;4.80;;;9.80;99.90;;;;;;4905864;29;20161;-86
2023/01/05 03:42:15;;;;;;;29.92;4.30;;;9.80;99.90;;;;;;4904860;29;20048;-87
2023/01/05 03:44:44;;;;;;;22.05;4.85;;;9.80;99.90;;;;;;4907458;29;20563;-87
2023/01/05 03:47:10;;;;;;;24.83;5.45;;;9.80;99.90;;;;;;4911715;29;20032;-88
2023/01/05 03:49:38;;;;;;;25.25;4.85;;;9.80;99.90;;;;;;4909798;29;20052;-88
2023/01/05 03:52:04;;;;;;;25.73;4.70;;;9.80;99.90;;;;;;4910483;29;20111;-86
2023/01/05 03:54:29;;;;;;;25.70;5.45;;;9.80;99.90;;;;;;4894356;29;20486;-87
2023/01/05 03:56:55;;;;;;;27.67;5.10;;;9.80;99.90;;;;;;4909752;29;20040;-87
2023/01/05 03:59:21;;;;;;;19.80;3.78;;;9.80;99.90;;;;;;4910528;29;20036;-87
2023/01/05 04:01:46;;;;;;;28.65;5.00;;;9.80;99.90;;;;;;4907982;29;20135;-86
2023/01/05 04:04:12;;;;;;;25.48;4.43;;;9.80;99.90;;;;;;4910559;29;20067;-87
2023/01/05 04:06:38;;;;;;;26.05;4.53;;;9.80;99.90;;;;;;4894997;29;20036;-86
2023/01/05 04:09:04;;;;;;;20.02;4.43;;;9.90;99.90;;;;;;4910275;29;20635;-86
2023/01/05 04:11:29;;;;;;;21.75;3.72;;;9.70;99.90;;;;;;4908913;29;20040;-87
2023/01/05 04:13:55;;;;;;;24.60;4.30;;;9.80;99.90;;;;;;4909863;29;20048;-87
2023/01/05 04:16:21;;;;;;;28.00;4.63;;;9.80;99.90;;;;;;4910590;29;20088;-87
2023/01/05 04:18:46;;;;;;;27.02;4.30;;;9.50;99.90;;;;;;4909276;29;20040;-87
2023/01/05 04:21:15;;;;;;;27.52;4.95;;;10.00;99.90;;;;;;4908430;29;20032;-87
2023/01/05 04:23:41;;;;;;;23.55;4.97;;;9.80;99.90;;;;;;4910185;29;20039;-87
2023/01/05 04:26:06;;;;;;;20.48;3.55;;;9.80;99.90;;;;;;4906909;29;20977;-87
2023/01/05 04:28:32;;;;;;;25.77;5.47;;;10.40;99.90;;;;;;4908840;29;20058;-86
2023/01/05 04:31:00;;;;;;;23.35;4.40;;;9.80;99.90;;;;;;4911628;29;20046;-87
2023/01/05 04:33:44;;;;;;;25.42;5.95;;;10.10;99.90;;;;;;4912137;29;20138;-87
2023/01/05 04:36:09;;;;;;;29.85;5.63;;;9.80;99.90;;;;;;4892696;29;20040;-87
2023/01/05 04:38:35;;;;;;;24.98;4.75;;;9.80;99.90;;;;;;4908753;29;20046;-87
2023/01/05 04:41:10;;;;;;;24.02;4.88;;;10.20;99.90;;;;;;4905166;29;20048;-87
2023/01/05 04:43:36;;;;;;;21.52;4.50;;;9.80;99.90;;;;;;4907876;29;20037;-87
2023/01/05 04:46:02;;;;;;;24.73;3.17;;;10.50;99.90;;;;;;4909362;29;20036;-87
2023/01/05 04:48:27;;;;;;;20.08;4.78;;;9.90;99.90;;;;;;4910334;29;20035;-88
2023/01/05 04:50:54;;;;;;;22.55;4.32;;;10.40;99.90;;;;;;4909365;29;20044;-87
2023/01/05 04:53:21;;;;;;;23.50;4.18;;;9.80;99.90;;;;;;4908480;29;20064;-87
2023/01/05 04:55:47;;;;;;;20.67;3.70;;;9.80;99.90;;;;;;4904753;29;22496;-87
2023/01/05 04:58:53;;;;;;;23.50;4.68;;;9.80;99.90;;;;;;4904453;29;20079;-87
2023/01/05 05:02:22;;;;;;;26.55;4.40;;;9.80;99.90;;;;;;4889510;29;20103;-87
2023/01/05 05:27:39;;;;;;;25.42;4.63;;;9.80;99.90;;;;;;4728646;30;21065;-87
2023/01/05 05:30:42;;;;;;;25.38;4.38;;;9.90;99.90;;;;;;4747197;29;20112;-86
2023/01/05 05:33:40;;;;;;;26.08;4.10;;;9.90;99.90;;;;;;4808536;29;20177;-86
2023/01/05 05:36:30;;;;;;;24.83;5.30;;;9.90;99.90;;;;;;4844774;29;20514;-86
2023/01/05 05:39:23;;;;;;;25.08;4.88;;;9.90;99.90;;;;;;4860059;29;20049;-87
2023/01/05 05:53:00;;;;;;;24.10;4.40;;;10.10;99.90;;;;;;4859902;29;20071;-88
2023/01/05 05:55:49;;;;;;;22.83;3.63;;;9.90;99.90;;;;;;4904333;29;20064;-87
2023/01/05 05:58:40;;;;;;;25.88;4.28;;;9.90;99.90;;;;;;4909045;29;20048;-87
2023/01/05 06:04:46;;;;;;;20.50;4.65;;;9.80;99.90;;;;;;4909043;29;20046;-88
2023/01/05 06:07:37;;;;;;;25.10;3.97;;;9.90;99.90;;;;;;4904375;29;20095;-87
2023/01/05 06:10:54;;;;;;;21.10;3.70;;;9.90;99.90;;;;;;4889726;29;20039;-86
2023/01/05 06:14:32;;;;;;;22.98;4.28;;;9.90;99.90;;;;;;4822805;29;20073;-85
2023/01/05 06:17:25;;;;;;;19.60;3.78;;;10.10;99.90;;;;;;4851269;29;20059;-88
2023/01/05 06:19:57;;;;;;;27.85;4.70;;;9.90;99.90;;;;;;4889097;29;20044;-87
2023/01/05 06:25:39;;;;;;;20.65;4.25;;;9.90;99.90;;;;;;4887835;29;20052;-87
2023/01/05 06:28:05;;;;;;;18.88;3.72;;;9.90;99.90;;;;;;4870215;29;20060;-86
2023/01/05 06:33:34;;;;;;;23.27;3.45;;;9.90;99.90;;;;;;4878918;29;20059;-87
2023/01/05 06:36:12;;;;;;;22.33;3.70;;;9.90;99.90;;;;;;4904602;29;20040;-86
2023/01/05 06:38:40;;;;;;;21.02;3.70;;;9.90;99.90;;;;;;4892588;29;20131;-87
2023/01/05 06:41:06;;;;;;;23.83;3.97;;;9.80;99.90;;;;;;4905872;29;21295;-87
2023/01/05 06:43:32;;;;;;;21.52;3.60;;;9.90;99.90;;;;;;4906340;29;20040;-87
2023/01/05 06:46:07;;;;;;;22.63;3.55;;;9.80;99.90;;;;;;4892491;29;20048;-87
2023/01/05 06:48:33;;;;;;;26.52;4.60;;;9.80;99.90;;;;;;4887294;29;20072;-86
2023/01/05 06:50:59;;;;;;;26.58;5.28;;;9.80;99.90;;;;;;4908300;29;20071;-84
2023/01/05 06:53:27;;;;;;;23.08;5.15;;;9.80;99.90;;;;;;4890201;29;20041;-87
2023/01/05 06:56:10;;;;;;;22.98;3.92;;;9.70;99.90;;;;;;4888895;29;20047;-87
2023/01/05 06:58:36;;;;;;;26.42;4.70;;;9.70;99.90;;;;;;4901355;29;20046;-84
2023/01/05 07:01:01;;;;;;;22.77;3.78;;;10.10;99.90;;;;;;4901920;29;20039;-84
2023/01/05 07:03:45;;;;;;;24.27;4.65;;;10.40;99.90;;;;;;4891914;29;20048;-86
2023/01/05 07:06:16;;;;;;;19.08;3.30;;;9.80;99.90;;;;;;4886137;29;20064;-87
2023/01/05 07:12:05;;;;;;;29.30;4.97;;;9.80;99.90;;;;;;4901499;29;20047;-87
2023/01/05 07:14:30;;;;;;;25.35;5.00;;;9.80;99.90;;;;;;4890410;29;20040;-84
2023/01/05 07:17:52;;;;;;;22.92;4.32;;;9.80;99.90;;;;;;4895401;29;20036;-84
2023/01/05 07:22:03;;;;;;;23.02;3.95;;;9.80;99.90;;;;;;4908919;29;20086;-85
2023/01/05 07:24:30;;;;;;;27.88;4.75;;;9.80;99.90;;;;;;4855419;29;20585;-86
2023/01/05 07:27:12;;;;;;;18.35;3.63;;;9.80;99.90;;;;;;4853974;29;20048;-85
2023/01/05 07:29:38;;;;;;;27.15;4.95;;;9.80;99.90;;;;;;4858433;29;20105;-86
2023/01/05 07:32:44;;;;;;;22.85;4.05;;;10.00;99.90;;;;;;4858691;29;20045;-87
2023/01/05 07:39:38;;;;;;;19.88;3.95;;;9.80;99.90;;;;;;4911417;29;20806;-87
2023/01/05 07:53:37;;;;;;;19.02;3.30;;;9.90;99.90;;;;;;4901742;29;20087;-88
2023/01/05 08:04:46;;;;;;;16.50;3.00;;;10.00;99.90;;;;;;4859164;29;20060;-87
2023/01/05 08:08:17;;;;;;;14.95;2.92;;;9.70;99.90;;;;;;4865972;29;20041;-87
2023/01/05 08:21:49;;;;;;;22.20;4.32;;;9.80;99.90;;;;;;4948436;28;20616;-86
2023/01/05 08:51:41;;;;;;;23.08;3.85;;;9.80;99.90;;;;;;4866046;29;20660;-85
2023/01/05 08:54:42;;;;;;;19.23;3.25;;;9.80;99.90;;;;;;4867060;29;20051;-85
2023/01/05 08:57:08;;;;;;;25.75;4.53;;;9.80;99.90;;;;;;4891889;29;20587;-85
2023/01/05 09:00:20;;;;;;;20.05;4.00;;;9.90;99.90;;;;;;4887872;29;20667;-86
2023/01/05 09:02:51;;;;;;;23.23;3.53;;;9.80;99.90;;;;;;4921842;29;20071;-85
2023/01/05 09:05:53;;;;;;;25.17;3.95;;;9.90;99.90;;;;;;4916278;28;20054;-86
2023/01/05 09:08:44;;;;;;;23.10;4.55;;;9.90;99.90;;;;;;4932430;29;20051;-85
2023/01/05 09:12:00;;;;;;;24.52;5.25;;;10.70;99.90;;;;;;4924282;29;20050;-85
2023/01/05 09:14:36;;;;;;;20.05;3.30;;;10.00;99.90;;;;;;4914359;29;20040;-86
2023/01/05 09:17:38;;;;;;;19.70;3.55;;;9.90;99.90;;;;;;4927174;29;20052;-85
2023/01/05 09:21:29;;;;;;;18.73;3.00;;;10.00;99.90;;;;;;4927555;29;20135;-86
2023/01/05 09:23:55;;;;;;;19.85;3.45;;;10.00;99.90;;;;;;4907538;29;20036;-86
2023/01/05 09:26:21;;;;;;;24.95;4.30;;;9.90;99.90;;;;;;4916910;29;20046;-86
2023/01/05 09:29:05;;;;;;;23.02;4.00;;;10.00;99.90;;;;;;4912988;29;20043;-86
2023/01/05 09:31:36;;;;;;;26.50;5.07;;;10.60;99.90;;;;;;4915852;29;20043;-85
2023/01/05 10:59:34;;;;;;;17.52;2.83;;;10.30;99.90;;;;;;4912526;29;20107;-86
2023/01/05 11:02:20;;;;;;;16.80;2.50;;;10.50;99.90;;;;;;4929887;29;20058;-84
2023/01/05 11:05:27;;;;;;;18.13;3.40;;;10.40;99.90;;;;;;4911939;29;20175;-84
2023/01/05 11:09:18;;;;;;;16.17;2.83;;;10.50;99.90;;;;;;4888526;29;20105;-84
2023/01/05 11:12:19;;;;;;;19.17;2.92;;;10.50;99.90;;;;;;4876726;29;20080;-84
2023/01/05 11:15:13;;;;;;;17.92;2.72;;;10.60;99.90;;;;;;4901325;29;20403;-83
2023/01/05 11:18:43;;;;;;;15.13;3.00;;;10.60;99.90;;;;;;4931340;29;20083;-85
2023/01/05 11:21:42;;;;;;;16.05;2.83;;;10.50;99.90;;;;;;4925258;29;20536;-84
2023/01/05 11:32:07;;;;;;;21.67;3.28;;;10.70;99.90;;;;;;4948162;28;20143;-84
2023/01/05 11:35:02;;;;;;;18.08;4.03;;;10.80;99.90;;;;;;4914380;29;20138;-84
2023/01/05 11:37:31;;;;;;;17.88;3.83;;;10.80;99.90;;;;;;4930251;29;20402;-83
2023/01/05 11:40:25;;;;;;;15.65;3.20;;;10.90;99.90;;;;;;4930520;29;20561;-86
2023/01/05 11:42:52;;;;;;;16.77;2.75;;;10.90;99.90;;;;;;4922738;29;20059;-84
2023/01/05 11:45:35;;;;;;;13.88;2.45;;;11.00;99.90;;;;;;4918158;29;20066;-84
2023/01/05 11:48:05;;;;;;;14.80;3.20;;;10.90;99.90;;;;;;4928013;29;20039;-87
2023/01/05 11:50:58;;;;;;;15.48;3.08;;;10.90;99.90;;;;;;4936806;29;20176;-87
2023/01/05 11:53:38;;;;;;;18.70;3.45;;;10.90;99.90;;;;;;4936026;29;20558;-87
2023/01/05 11:56:06;;;;;;;14.10;3.00;;;10.90;99.90;;;;;;4938924;29;20115;-85
2023/01/05 11:58:40;;;;;;;15.80;2.78;;;10.90;99.90;;;;;;4932836;29;20043;-87
2023/01/05 12:01:49;;;;;;;17.25;2.80;;;10.90;99.90;;;;;;4934650;29;20046;-84
2023/01/05 12:04:45;;;;;;;16.00;2.80;;;10.90;99.90;;;;;;4930806;29;20047;-84
2023/01/05 12:07:24;;;;;;;17.63;2.60;;;10.90;99.90;;;;;;4935148;29;20047;-90
2023/01/05 12:10:34;;;;;;;20.55;4.13;;;10.90;99.90;;;;;;4918419;29;20044;-87
2023/01/05 12:13:17;;;;;;;15.90;2.00;;;11.00;99.90;;;;;;4938364;29;20043;-86
2023/01/05 12:16:12;;;;;;;20.00;2.30;;;11.00;99.90;;;;;;4912288;29;20047;-85
2023/01/05 12:19:08;;;;;;;16.95;3.00;;;10.90;99.90;;;;;;4930598;29;20039;-88
2023/01/05 12:21:59;;;;;;;18.55;3.03;;;10.90;99.90;;;;;;4936193;29;20558;-88
2023/01/05 12:24:53;;;;;;;19.77;3.65;;;10.90;99.90;;;;;;4931302;29;20150;-88
2023/01/05 12:27:39;;;;;;;17.42;3.90;;;10.90;99.90;;;;;;4917083;29;20046;-88
2023/01/05 12:30:36;;;;;;;17.35;4.07;;;10.90;99.90;;;;;;4935970;29;20126;-89
2023/01/05 12:33:21;;;;;;;22.40;4.15;;;10.70;99.90;;;;;;4918303;29;20045;-88
2023/01/05 12:36:22;;;;;;;15.07;2.97;;;11.10;99.90;;;;;;4934724;29;20055;-88
2023/01/05 12:38:57;;;;;;;16.00;2.90;;;10.80;99.90;;;;;;4923909;29;20060;-88
2023/01/05 12:41:55;;;;;;;14.82;3.13;;;10.70;99.90;;;;;;4933679;29;20094;-88
2023/01/05 12:44:53;;;;;;;22.25;3.65;;;10.80;99.90;;;;;;4931374;29;20479;-88
2023/01/05 12:47:49;;;;;;;19.80;2.72;;;10.80;99.90;;;;;;4932986;29;20408;-87
2023/01/05 12:50:24;;;;;;;22.33;3.30;;;10.80;99.90;;;;;;4929958;29;20430;-86
2023/01/05 12:53:28;;;;;;;19.20;4.17;;;10.80;99.90;;;;;;4907731;29;20052;-86
2023/01/05 12:55:58;;;;;;;18.17;2.92;;;10.80;99.90;;;;;;4924599;29;20056;-86
2023/01/05 12:58:31;;;;;;;25.25;4.45;;;10.80;99.90;;;;;;4911628;29;21868;-85
2023/01/05 13:00:59;;;;;;;19.58;4.60;;;10.80;99.90;;;;;;4931372;29;20048;-86
2023/01/05 13:03:40;;;;;;;21.52;4.32;;;10.80;99.90;;;;;;4910549;29;20048;-85
2023/01/05 13:06:14;;;;;;;20.15;3.78;;;10.80;99.90;;;;;;4931556;29;20367;-87
2023/01/05 13:08:53;;;;;;;21.60;3.33;;;10.80;99.90;;;;;;4911777;29;20052;-87
2023/01/05 13:11:21;;;;;;;17.45;3.70;;;10.80;99.90;;;;;;4911855;29;20063;-87
2023/01/05 13:13:55;;;;;;;21.95;3.88;;;10.80;99.90;;;;;;4909781;29;20407;-88
2023/01/05 13:16:35;;;;;;;16.13;3.17;;;11.30;99.90;;;;;;4933024;29;20479;-87
2023/01/05 13:19:29;;;;;;;24.33;5.10;;;10.80;99.90;;;;;;4928720;29;20558;-88
2023/01/05 13:22:11;;;;;;;20.65;4.22;;;10.80;99.90;;;;;;4931163;29;20040;-88
2023/01/05 13:24:55;;;;;;;19.70;3.40;;;10.80;99.90;;;;;;4926670;29;20048;-87
2023/01/05 13:27:42;;;;;;;19.75;3.88;;;10.90;99.90;;;;;;4931684;29;20081;-87
2023/01/05 13:30:34;;;;;;;18.80;4.32;;;10.80;99.90;;;;;;4912674;29;20066;-89
2023/01/05 13:33:19;;;;;;;18.73;3.88;;;10.70;99.90;;;;;;4915382;29;20057;-87
2023/01/05 13:49:49;;;;;;;24.73;4.75;;;10.60;99.90;;;;;;6111751;23;2522286;-85
2023/01/05 13:52:56;;;;;;;21.08;4.45;;;10.60;99.90;;;;;;6163341;23;20025;-85
2023/01/05 13:56:29;;;;;;;18.10;4.35;;;10.50;99.90;;;;;;6071265;23;20030;-85
2023/01/05 14:03:32;;;;;;;25.20;4.70;;;10.60;99.90;;;;;;6070888;23;20017;-86
2023/01/05 14:07:28;;;;;;;23.75;4.78;;;10.60;99.90;;;;;;5928594;23;20022;-84
2023/01/05 14:25:44;;;;;;;24.08;4.70;;;10.30;99.90;;;;;;6102014;23;20073;-86
2023/01/05 14:40:35;;;;;;;24.63;4.20;;;10.80;99.90;;;;;;6103441;23;20016;-84
2023/01/05 14:48:36;;;;;;;28.48;3.95;;;10.60;99.90;;;;;;6094141;23;20121;-84
2023/01/05 15:07:32;;;;;;;21.23;4.38;;;10.60;99.90;;;;;;6215963;23;20067;-83
2023/01/05 15:11:17;;;;;;;28.63;5.10;;;10.30;99.90;;;;;;6211171;23;20028;-84
2023/01/05 15:22:24;;;;;;;20.42;4.13;;;9.80;99.90;;;;;;6094623;23;20141;-83
2023/01/05 15:26:01;;;;;;;28.98;5.13;;;10.10;99.90;;;;;;6018067;23;20018;-84
2023/01/05 15:29:38;;;;;;;21.50;4.60;;;10.10;99.90;;;;;;6067840;23;20464;-85
2023/01/05 15:39:31;;;;;;;27.70;4.10;;;9.90;99.90;;;;;;5988617;23;20030;-84
2023/01/05 15:53:34;;;;;;;25.95;4.00;;;10.30;99.90;;;;;;6123319;23;20036;-85
2023/01/05 16:48:39;;;;;;;34.20;6.20;;;8.90;99.90;;;;;;6122063;23;20386;-84
2023/01/05 16:51:29;;;;;;;39.28;6.65;;;8.90;99.90;;;;;;6159288;23;20016;-83
2023/01/05 17:11:11;;;;;;;47.58;8.35;;;9.20;99.90;;;;;;6212728;23;20087;-87
2023/01/05 17:17:54;;;;;;;39.97;6.03;;;9.00;99.90;;;;;;6213268;23;20385;-84
2023/01/05 17:20:50;;;;;;;28.30;5.90;;;9.00;99.90;;;;;;6212320;23;20460;-85
2023/01/05 17:27:21;;;;;;;26.75;5.88;;;9.00;99.90;;;;;;6125525;23;20020;-83
2023/01/05 17:29:50;;;;;;;32.50;5.43;;;9.00;99.90;;;;;;6213226;23;20349;-84
2023/01/05 17:32:45;;;;;;;28.88;5.30;;;8.90;99.90;;;;;;6188916;23;20020;-85
2023/01/05 17:36:16;;;;;;;28.55;5.70;;;9.10;99.90;;;;;;6208124;23;20031;-82
2023/01/05 17:38:58;;;;;;;34.40;6.72;;;9.00;99.90;;;;;;6189048;23;20598;-83
2023/01/05 17:41:25;;;;;;;31.63;6.18;;;9.10;99.90;;;;;;6214041;23;20068;-82
2023/01/05 17:44:15;;;;;;;28.77;6.13;;;9.30;99.90;;;;;;6217816;23;20084;-83
2023/01/05 17:46:43;;;;;;;38.35;7.22;;;9.10;99.90;;;;;;6190815;23;20096;-83
2023/01/05 17:49:31;;;;;;;29.15;5.95;;;9.10;99.90;;;;;;6191041;23;20091;-82
2023/01/05 17:51:58;;;;;;;31.02;5.85;;;9.20;99.90;;;;;;6158981;23;20032;-82
2023/01/05 17:57:57;;;;;;;30.17;5.15;;;9.20;99.90;;;;;;6213494;23;20024;-83
2023/01/05 18:04:48;;;;;;;32.85;5.68;;;9.20;99.90;;;;;;6214738;23;20067;-84
2023/01/05 18:07:14;;;;;;;29.42;5.55;;;9.20;99.90;;;;;;6156358;23;20025;-82
2023/01/05 18:09:50;;;;;;;29.88;6.40;;;9.20;99.90;;;;;;6132345;23;20865;-84
2023/01/05 18:13:06;;;;;;;32.08;5.50;;;9.30;99.90;;;;;;6182487;23;20096;-83
2023/01/05 18:15:34;;;;;;;36.45;6.35;;;9.30;99.90;;;;;;6107477;23;20083;-84
2023/01/05 18:18:20;;;;;;;37.25;5.72;;;9.20;99.90;;;;;;6132174;23;20075;-83
2023/01/05 18:21:05;;;;;;;40.00;6.22;;;9.20;99.90;;;;;;6156180;23;20335;-85
2023/01/05 18:23:38;;;;;;;38.78;6.32;;;9.40;99.90;;;;;;6187994;23;20088;-86
2023/01/05 18:26:24;;;;;;;41.10;6.22;;;9.30;99.90;;;;;;6181413;23;20092;-83
2023/01/05 18:28:52;;;;;;;38.65;6.85;;;9.20;99.90;;;;;;6132829;23;20017;-84
2023/01/05 18:35:58;;;;;;;36.13;6.50;;;9.30;99.90;;;;;;6182133;23;20059;-85
2023/01/05 18:38:27;;;;;;;38.22;7.72;;;9.30;99.90;;;;;;6140214;23;20021;-83
2023/01/05 18:40:56;;;;;;;36.85;8.55;;;9.30;99.90;;;;;;6133207;23;20076;-84
2023/01/05 18:43:27;;;;;;;40.45;8.13;;;9.40;99.90;;;;;;6158769;23;20453;-83
2023/01/05 18:49:43;;;;;;;35.92;8.82;;;9.40;99.90;;;;;;6158054;23;20370;-84
2023/01/05 18:52:28;;;;;;;34.38;9.10;;;9.40;99.90;;;;;;6132045;23;20089;-81
2023/01/05 18:54:56;;;;;;;36.58;9.55;;;9.40;99.90;;;;;;6158640;23;20055;-83
2023/01/05 18:58:06;;;;;;;36.35;9.98;;;9.30;99.90;;;;;;6203457;23;20040;-87
2023/01/05 19:01:14;;;;;;;38.03;10.88;;;9.30;99.90;;;;;;6187908;23;20020;-87
2023/01/05 19:03:54;;;;;;;;;;;9.30;99.90;;;;;;6210149;23;20781;-83
2023/01/05 19:14:34;;;;;;;37.08;9.77;;;9.40;99.90;;;;;;6213676;23;20023;-86
2023/01/05 19:25:11;;;;;;;52.60;13.13;;;9.40;99.90;;;;;;6216610;23;20462;-85
2023/01/05 19:28:04;;;;;;;51.38;15.10;;;9.40;99.90;;;;;;6217125;23;20513;-86
2023/01/05 19:31:42;;;;;;;42.47;13.70;;;9.40;99.90;;;;;;6053197;23;20015;-86
2023/01/05 19:34:30;;;;;;;45.40;15.43;;;9.50;99.90;;;;;;6094778;23;20433;-85
2023/01/05 19:37:04;;;;;;;42.78;13.40;;;9.50;99.90;;;;;;6023445;23;20018;-87
2023/01/05 19:40:59;;;;;;;46.45;16.13;;;9.50;99.90;;;;;;5965484;24;20026;-85
2023/01/05 19:43:53;;;;;;;41.92;15.77;;;9.50;99.90;;;;;;5942161;23;20018;-85
2023/01/05 19:46:21;;;;;;;40.00;15.93;;;9.50;99.90;;;;;;5989359;23;20047;-85
2023/01/05 19:52:45;;;;;;;42.85;16.63;;;10.10;99.90;;;;;;6216026;23;20011;-85
2023/01/05 20:14:33;;;;;;;43.67;15.88;;;9.70;99.90;;;;;;5897024;24;20061;-85
2023/01/05 21:02:07;;;;;;;33.70;16.88;;;10.70;99.90;;;;;;6092231;23;20069;-84
2023/01/05 21:05:28;;;;;;;32.30;16.00;;;9.80;99.90;;;;;;6034307;23;20059;-84
